createdAt,value
2022-12-19T00:00:52.521Z,13.73
2022-12-19T00:03:20.826Z,14.03
2022-12-19T00:05:49.430Z,16.70
2022-12-19T00:08:18.285Z,15.20
2022-12-19T00:10:55.271Z,14.80
2022-12-19T00:13:23.604Z,14.97
2022-12-19T00:15:53.318Z,15.83
2022-12-19T00:18:22.199Z,12.43
2022-12-19T00:21:01.452Z,11.73
2022-12-19T00:23:31.179Z,15.13
2022-12-19T00:26:09.111Z,11.23
2022-12-19T00:28:37.776Z,12.43
2022-12-19T00:31:07.808Z,14.67
2022-12-19T00:33:36.361Z,10.83
2022-12-19T00:36:10.128Z,13.23
2022-12-19T00:38:38.725Z,12.57
2022-12-19T00:41:11.818Z,12.23
2022-12-19T00:43:40.991Z,12.43
2022-12-19T00:46:14.086Z,11.00
2022-12-19T00:48:42.768Z,12.87
2022-12-19T00:51:14.000Z,10.83
2022-12-19T00:53:42.683Z,12.57
2022-12-19T00:56:14.364Z,11.77
2022-12-19T00:58:46.821Z,10.67
2022-12-19T01:01:18.867Z,10.13
2022-12-19T01:04:18.671Z,11.77
2022-12-19T01:06:36.310Z,11.90
2022-12-19T01:09:05.074Z,10.97
2022-12-19T01:11:51.017Z,9.93
2022-12-19T01:14:22.961Z,9.77
2022-12-19T01:16:53.715Z,10.77
2022-12-19T01:19:22.142Z,11.80
2022-12-19T01:21:50.426Z,10.57
2022-12-19T01:24:19.351Z,11.10
2022-12-19T01:26:47.746Z,11.17
2022-12-19T01:29:15.989Z,9.70
2022-12-19T01:31:44.471Z,9.00
2022-12-19T01:34:14.523Z,10.20
2022-12-19T01:36:42.665Z,10.07
2022-12-19T01:39:10.892Z,10.30
2022-12-19T01:41:39.185Z,9.47
2022-12-19T01:44:09.726Z,10.50
2022-12-19T01:46:42.757Z,9.30
2022-12-19T01:49:24.763Z,11.67
2022-12-19T01:51:57.056Z,9.33
2022-12-19T01:54:36.649Z,13.47
2022-12-19T01:57:09.521Z,9.90
2022-12-19T01:59:40.516Z,8.40
2022-12-19T02:02:13.147Z,8.83
2022-12-19T02:04:43.340Z,8.33
2022-12-19T02:07:16.338Z,7.10
2022-12-19T02:09:46.690Z,7.73
2022-12-19T02:12:15.128Z,8.50
2022-12-19T02:14:43.930Z,9.27
2022-12-19T02:17:20.348Z,9.10
2022-12-19T02:20:19.092Z,8.47
2022-12-19T02:23:05.541Z,9.97
2022-12-19T02:26:00.854Z,7.37
2022-12-19T02:28:55.065Z,8.13
2022-12-19T02:31:31.176Z,8.47
2022-12-19T02:34:10.904Z,6.20
2022-12-19T02:36:45.233Z,7.53
2022-12-19T02:39:19.744Z,10.17
2022-12-19T02:41:52.440Z,8.20
2022-12-19T02:44:25.849Z,6.97
2022-12-19T02:46:56.334Z,7.80
2022-12-19T02:49:31.164Z,6.80
2022-12-19T02:51:59.882Z,8.17
2022-12-19T02:54:28.255Z,6.57
2022-12-19T02:57:01.948Z,7.70
2022-12-19T02:59:52.952Z,6.67
2022-12-19T03:02:33.277Z,9.13
2022-12-19T03:05:10.512Z,6.67
2022-12-19T03:07:43.914Z,7.23
2022-12-19T03:10:19.916Z,8.83
2022-12-19T03:12:52.459Z,7.80
2022-12-19T03:15:21.793Z,7.50
2022-12-19T03:17:52.219Z,6.23
2022-12-19T03:20:27.454Z,8.37
2022-12-19T03:22:55.696Z,6.63
2022-12-19T03:25:25.535Z,6.70
2022-12-19T03:27:55.951Z,6.53
2022-12-19T03:30:24.397Z,6.57
2022-12-19T03:32:54.870Z,6.23
2022-12-19T03:35:25.965Z,5.77
2022-12-19T03:37:56.727Z,8.07
2022-12-19T03:40:27.622Z,6.23
2022-12-19T03:43:12.706Z,6.13
2022-12-19T03:45:50.647Z,5.87
2022-12-19T03:48:26.597Z,6.20
2022-12-19T03:51:04.777Z,5.93
2022-12-19T03:53:47.417Z,6.63
2022-12-19T03:56:24.131Z,6.33
2022-12-19T03:58:59.103Z,6.47
2022-12-19T04:01:29.826Z,6.93
2022-12-19T04:04:00.598Z,7.83
2022-12-19T04:06:31.493Z,6.63
2022-12-19T04:09:01.108Z,6.93
2022-12-19T04:11:35.806Z,6.10
2022-12-19T04:14:07.765Z,7.30
2022-12-19T04:16:45.399Z,6.60
2022-12-19T04:19:19.537Z,7.00
2022-12-19T04:21:54.272Z,7.80
2022-12-19T04:24:28.914Z,7.03
2022-12-19T04:27:00.519Z,8.10
2022-12-19T04:29:32.687Z,7.30
2022-12-19T04:32:03.402Z,7.83
2022-12-19T04:34:33.589Z,6.93
2022-12-19T04:37:01.707Z,7.63
2022-12-19T04:39:30.314Z,8.07
2022-12-19T04:41:58.644Z,8.50
2022-12-19T04:44:26.817Z,7.83
2022-12-19T04:46:55.162Z,8.27
2022-12-19T04:49:23.630Z,10.13
2022-12-19T04:51:54.001Z,8.37
2022-12-19T04:54:22.845Z,10.30
2022-12-19T04:56:51.466Z,9.10
2022-12-19T04:59:19.590Z,8.97
2022-12-19T05:01:47.941Z,8.63
2022-12-19T05:04:16.446Z,8.00
2022-12-19T05:06:44.565Z,8.93
2022-12-19T05:09:14.405Z,10.40
2022-12-19T05:11:42.701Z,11.50
2022-12-19T05:14:11.414Z,9.30
2022-12-19T05:16:39.663Z,8.67
2022-12-19T05:19:08.422Z,12.20
2022-12-19T05:21:36.887Z,10.03
2022-12-19T05:24:05.718Z,11.53
2022-12-19T05:26:35.365Z,11.57
2022-12-19T05:29:03.714Z,10.07
2022-12-19T05:31:32.022Z,9.90
2022-12-19T05:34:00.342Z,10.93
2022-12-19T05:36:32.435Z,11.97
2022-12-19T05:39:01.244Z,9.67
2022-12-19T05:41:29.485Z,12.07
2022-12-19T05:43:59.072Z,10.97
2022-12-19T05:46:27.886Z,9.93
2022-12-19T05:48:56.436Z,10.90
2022-12-19T05:51:25.436Z,12.53
2022-12-19T05:53:53.785Z,10.53
2022-12-19T05:56:23.580Z,14.20
2022-12-19T05:58:52.197Z,13.80
2022-12-19T06:01:24.080Z,14.47
2022-12-19T06:03:53.017Z,11.53
2022-12-19T06:06:23.053Z,14.73
2022-12-19T06:08:55.360Z,13.23
2022-12-19T06:11:23.931Z,14.27
2022-12-19T06:13:52.605Z,13.60
2022-12-19T06:16:24.173Z,27.07
2022-12-19T06:18:52.431Z,14.83
2022-12-19T06:21:23.067Z,13.60
2022-12-19T06:23:51.946Z,12.93
2022-12-19T06:26:22.725Z,15.27
2022-12-19T06:28:52.023Z,17.40
2022-12-19T06:31:24.116Z,14.00
2022-12-19T06:33:53.279Z,15.27
2022-12-19T06:36:23.417Z,15.40
2022-12-19T06:38:52.562Z,17.50
2022-12-19T06:41:38.493Z,13.93
2022-12-19T06:44:08.580Z,17.50
2022-12-19T06:46:39.144Z,19.67
2022-12-19T06:49:08.223Z,14.63
2022-12-19T06:51:36.867Z,18.00
2022-12-19T06:54:05.498Z,20.53
2022-12-19T06:56:36.742Z,21.07
2022-12-19T06:59:05.397Z,16.20
2022-12-19T07:01:50.198Z,15.13
2022-12-19T07:04:23.958Z,15.97
2022-12-19T07:06:52.930Z,17.57
2022-12-19T07:09:21.650Z,18.40
2022-12-19T07:11:50.498Z,17.60
2022-12-19T07:14:19.275Z,17.37
2022-12-19T07:16:51.069Z,19.70
2022-12-19T07:19:20.747Z,19.87
2022-12-19T07:21:49.353Z,19.43
2022-12-19T07:24:17.863Z,19.80
2022-12-19T07:26:46.511Z,18.13
2022-12-19T07:29:15.415Z,20.13
2022-12-19T07:31:43.710Z,18.50
2022-12-19T07:34:13.528Z,18.60
2022-12-19T07:36:41.860Z,21.53
2022-12-19T07:39:10.120Z,22.67
2022-12-19T07:41:38.584Z,19.83
2022-12-19T07:44:07.286Z,23.77
2022-12-19T07:46:35.549Z,23.10
2022-12-19T07:49:03.885Z,23.50
2022-12-19T07:51:33.871Z,21.00
2022-12-19T07:54:02.138Z,26.70
2022-12-19T07:56:30.396Z,25.60
2022-12-19T07:58:59.344Z,24.60
2022-12-19T08:01:28.482Z,25.43
2022-12-19T08:03:58.723Z,25.13
2022-12-19T08:06:28.019Z,22.67
2022-12-19T08:08:58.358Z,24.10
2022-12-19T08:11:32.610Z,24.30
2022-12-19T08:14:01.638Z,24.57
2022-12-19T08:16:29.857Z,23.47
2022-12-19T08:18:58.218Z,25.97
2022-12-19T08:21:27.108Z,23.90
2022-12-19T08:23:55.505Z,23.80
2022-12-19T08:26:26.801Z,25.37
2022-12-19T08:28:56.872Z,28.60
2022-12-19T08:31:27.201Z,26.20
2022-12-19T08:33:58.181Z,24.73
2022-12-19T08:36:27.098Z,23.80
2022-12-19T08:38:56.328Z,27.63
2022-12-19T08:41:26.511Z,25.27
2022-12-19T08:43:55.492Z,25.83
2022-12-19T08:46:24.353Z,30.97
2022-12-19T08:48:52.986Z,27.63
2022-12-19T08:51:21.729Z,25.23
2022-12-19T08:53:50.120Z,28.53
2022-12-19T08:56:20.520Z,29.40
2022-12-19T08:58:52.525Z,25.30
2022-12-19T09:01:24.275Z,28.13
2022-12-19T09:06:02.335Z,27.67
2022-12-19T09:06:41.388Z,29.03
2022-12-19T09:09:09.697Z,27.43
2022-12-19T09:11:45.414Z,31.87
2022-12-19T09:14:21.233Z,26.27
2022-12-19T09:16:50.376Z,26.00
2022-12-19T09:19:18.980Z,28.77
2022-12-19T09:21:47.353Z,27.47
2022-12-19T09:24:15.799Z,28.20
2022-12-19T09:26:44.972Z,28.13
2022-12-19T09:29:20.424Z,31.03
2022-12-19T09:31:56.936Z,31.47
2022-12-19T09:34:31.888Z,29.03
2022-12-19T09:37:07.715Z,28.83
2022-12-19T09:39:36.745Z,30.40
2022-12-19T09:42:32.430Z,28.93
2022-12-19T09:45:27.786Z,30.30
2022-12-19T09:48:05.858Z,28.13
2022-12-19T09:50:46.730Z,30.83
2022-12-19T09:53:22.819Z,29.13
2022-12-19T09:55:53.476Z,28.33
2022-12-19T09:58:32.267Z,28.63
2022-12-19T10:01:03.976Z,29.77
2022-12-19T10:03:40.415Z,31.27
2022-12-19T10:07:07.019Z,32.07
2022-12-19T10:10:52.887Z,34.50
2022-12-19T10:12:38.175Z,30.50
2022-12-19T10:15:09.731Z,31.90
2022-12-19T10:17:58.565Z,32.93
2022-12-19T10:20:32.070Z,33.97
2022-12-19T10:23:15.519Z,33.37
2022-12-19T10:25:59.937Z,32.33
2022-12-19T10:28:50.942Z,31.37
2022-12-19T10:31:24.626Z,31.00
2022-12-19T10:34:00.282Z,35.23
2022-12-19T10:37:11.902Z,33.20
2022-12-19T10:39:31.579Z,32.63
2022-12-19T10:42:11.147Z,34.43
2022-12-19T10:44:43.933Z,34.97
2022-12-19T10:47:17.762Z,33.20
2022-12-19T10:49:45.935Z,33.77
2022-12-19T10:52:16.263Z,35.17
2022-12-19T10:54:44.955Z,33.20
2022-12-19T10:57:21.419Z,36.07
2022-12-19T10:59:56.494Z,36.73
2022-12-19T11:02:35.682Z,32.90
2022-12-19T11:05:07.904Z,32.90
2022-12-19T11:07:37.770Z,35.20
2022-12-19T11:11:04.288Z,34.07
2022-12-19T11:19:23.218Z,30.50
2022-12-19T11:21:31.152Z,36.00
2022-12-19T11:29:18.921Z,41.53
2022-12-19T11:29:44.965Z,39.10
2022-12-19T11:30:36.958Z,35.63
2022-12-19T11:30:41.127Z,33.40
2022-12-19T11:34:04.739Z,32.73
2022-12-19T11:36:39.878Z,33.90
2022-12-19T11:39:14.644Z,36.07
2022-12-19T11:41:50.243Z,31.20
2022-12-19T11:44:27.925Z,31.87
2022-12-19T11:47:04.948Z,32.23
2022-12-19T11:49:40.226Z,30.20
2022-12-19T11:53:01.822Z,31.80
2022-12-19T11:55:16.218Z,31.27
2022-12-19T11:57:46.809Z,32.50
2022-12-19T12:00:18.171Z,33.43
2022-12-19T12:03:15.371Z,32.30
2022-12-19T12:05:45.283Z,33.43
2022-12-19T12:10:17.850Z,32.30
2022-12-19T12:18:39.213Z,33.13
2022-12-19T12:21:31.250Z,33.37
2022-12-19T12:31:10.767Z,35.07
2022-12-19T12:31:11.127Z,32.33
2022-12-19T12:31:28.142Z,34.43
2022-12-19T12:31:28.655Z,30.87
2022-12-19T12:31:57.033Z,32.50
2022-12-19T12:35:33.020Z,33.67
2022-12-19T12:38:38.691Z,32.60
2022-12-19T12:41:20.782Z,34.57
2022-12-19T12:44:07.729Z,44.37
2022-12-19T12:46:44.224Z,31.53
2022-12-19T12:49:30.271Z,34.93
2022-12-19T12:52:01.629Z,29.97
2022-12-19T12:54:35.621Z,28.67
2022-12-19T12:57:04.498Z,32.37
2022-12-19T12:59:33.615Z,31.00
2022-12-19T13:02:16.230Z,31.33
2022-12-19T13:04:57.152Z,30.67
2022-12-19T13:07:35.661Z,64.20
2022-12-19T13:10:24.096Z,24.63
2022-12-19T13:13:02.356Z,25.73
2022-12-19T13:15:42.275Z,26.83
2022-12-19T13:18:31.986Z,26.47
2022-12-19T13:21:01.581Z,24.53
2022-12-19T13:23:48.049Z,26.57
2022-12-19T13:26:51.154Z,23.50
2022-12-19T13:29:56.312Z,22.17
2022-12-19T13:32:25.544Z,22.00
2022-12-19T13:35:22.755Z,21.07
2022-12-19T13:39:51.443Z,23.20
2022-12-19T13:40:57.389Z,21.03
2022-12-19T13:43:48.056Z,20.97
2022-12-19T13:46:38.037Z,20.97
2022-12-19T13:49:12.113Z,21.60
2022-12-19T13:51:48.609Z,21.67
2022-12-19T13:54:25.513Z,18.43
2022-12-19T13:56:55.621Z,20.03
2022-12-19T13:59:26.831Z,19.37
2022-12-19T14:01:56.789Z,18.27
2022-12-19T14:04:30.650Z,16.70
2022-12-19T14:07:05.809Z,19.90
2022-12-19T14:11:28.855Z,18.10
2022-12-19T14:13:46.131Z,19.17
2022-12-19T14:15:38.653Z,18.37
2022-12-19T14:18:43.615Z,18.73
2022-12-19T14:22:08.919Z,18.93
2022-12-19T14:24:20.686Z,20.27
2022-12-19T14:28:25.964Z,18.43
2022-12-19T14:30:28.682Z,18.77
2022-12-19T14:33:39.676Z,16.73
2022-12-19T14:36:11.419Z,17.87
2022-12-19T14:39:24.040Z,17.57
2022-12-19T14:41:45.216Z,20.37
2022-12-19T14:52:08.178Z,19.30
2022-12-19T14:54:08.627Z,18.67
2022-12-19T14:54:18.685Z,17.90
2022-12-19T14:54:27.382Z,20.57
2022-12-19T14:58:59.032Z,16.60
2022-12-19T15:01:30.095Z,15.63
2022-12-19T15:04:48.432Z,16.13
2022-12-19T15:07:07.603Z,15.47
2022-12-19T15:11:06.500Z,17.07
2022-12-19T15:14:51.618Z,15.37
2022-12-19T15:16:00.295Z,13.70
2022-12-19T15:18:38.590Z,14.80
2022-12-19T15:21:10.002Z,14.27
2022-12-19T15:23:40.935Z,13.50
2022-12-19T15:26:14.705Z,14.33
2022-12-19T15:28:48.299Z,13.17
2022-12-19T15:31:28.913Z,13.20
2022-12-19T15:34:32.908Z,11.87
2022-12-19T15:36:46.689Z,13.90
2022-12-19T15:39:16.430Z,15.23
2022-12-19T15:41:48.578Z,13.03
2022-12-19T15:44:21.608Z,13.13
2022-12-19T15:46:52.340Z,13.17
2022-12-19T15:49:23.467Z,13.63
2022-12-19T15:51:55.363Z,12.77
2022-12-19T15:57:25.050Z,14.87
2022-12-19T15:59:54.604Z,13.00
2022-12-19T16:02:27.896Z,14.13
2022-12-19T16:05:06.717Z,13.67
2022-12-19T16:07:35.297Z,14.90
2022-12-19T16:10:03.710Z,13.30
2022-12-19T16:12:38.879Z,12.50
2022-12-19T16:15:15.597Z,13.90
2022-12-19T16:17:45.516Z,12.83
2022-12-19T16:20:19.249Z,13.13
2022-12-19T16:22:47.894Z,12.47
2022-12-19T16:25:17.091Z,13.40
2022-12-19T16:27:52.929Z,12.40
2022-12-19T16:30:25.597Z,12.53
2022-12-19T16:32:56.080Z,12.93
2022-12-19T16:36:01.778Z,12.23
2022-12-19T16:38:16.051Z,15.33
2022-12-19T16:40:48.963Z,13.17
2022-12-19T16:43:26.266Z,12.53
2022-12-19T16:46:00.776Z,12.60
2022-12-19T16:48:32.343Z,14.07
2022-12-19T16:51:01.504Z,13.40
2022-12-19T16:53:33.800Z,12.67
2022-12-19T16:56:02.812Z,14.67
2022-12-19T16:58:31.335Z,13.23
2022-12-19T17:00:59.944Z,11.73
2022-12-19T17:03:40.083Z,11.70
2022-12-19T17:06:13.923Z,10.90
2022-12-19T17:08:48.739Z,10.93
2022-12-19T17:11:19.497Z,11.47
2022-12-19T17:13:52.345Z,10.23
2022-12-19T17:16:21.090Z,11.00
2022-12-19T17:18:51.631Z,9.90
2022-12-19T17:21:24.208Z,10.03
2022-12-19T17:23:53.516Z,10.40
2022-12-19T17:26:21.918Z,9.20
2022-12-19T17:28:51.138Z,8.97
2022-12-19T17:31:24.960Z,9.70
2022-12-19T17:34:01.141Z,10.63
2022-12-19T17:36:37.052Z,9.53
2022-12-19T17:39:20.268Z,9.70
2022-12-19T17:41:48.733Z,10.73
2022-12-19T17:44:16.976Z,10.13
2022-12-19T17:46:46.115Z,10.57
2022-12-19T17:49:18.480Z,9.70
2022-12-19T17:51:52.364Z,9.50
2022-12-19T17:54:21.276Z,9.77
2022-12-19T17:56:49.764Z,10.10
2022-12-19T17:59:18.117Z,12.37
2022-12-19T18:01:47.653Z,11.03
2022-12-19T18:04:21.300Z,10.60
2022-12-19T18:06:49.794Z,11.03
2022-12-19T18:09:20.552Z,10.73
2022-12-19T18:11:49.538Z,11.37
2022-12-19T18:14:18.335Z,10.33
2022-12-19T18:16:47.560Z,11.13
2022-12-19T18:19:19.633Z,9.83
2022-12-19T18:21:48.927Z,10.43
2022-12-19T18:24:17.932Z,9.43
2022-12-19T18:26:47.100Z,10.77
2022-12-19T18:29:16.619Z,10.33
2022-12-19T18:31:50.458Z,9.40
2022-12-19T18:34:24.115Z,9.47
2022-12-19T18:36:53.446Z,10.33
2022-12-19T18:39:24.330Z,9.60
2022-12-19T18:41:55.754Z,9.57
2022-12-19T18:44:24.213Z,8.67
2022-12-19T18:46:53.516Z,9.17
2022-12-19T18:49:23.744Z,9.03
2022-12-19T18:51:52.140Z,10.20
2022-12-19T18:54:22.983Z,9.43
2022-12-19T18:56:52.089Z,10.77
2022-12-19T18:59:20.484Z,10.17
2022-12-19T19:01:49.158Z,9.70
2022-12-19T19:04:18.511Z,11.30
2022-12-19T19:06:52.014Z,9.90
2022-12-19T19:09:22.668Z,12.13
2022-12-19T19:11:51.830Z,11.27
2022-12-19T19:14:20.689Z,10.03
2022-12-19T19:16:49.278Z,10.10
2022-12-19T19:19:24.340Z,9.97
2022-12-19T19:21:55.495Z,8.70
2022-12-19T19:24:25.888Z,9.47
2022-12-19T19:26:56.556Z,9.17
2022-12-19T19:29:25.207Z,7.77
2022-12-19T19:32:04.740Z,9.10
2022-12-19T19:34:40.537Z,8.57
2022-12-19T19:37:12.292Z,8.57
2022-12-19T19:39:41.156Z,8.67
2022-12-19T19:42:10.737Z,8.23
2022-12-19T19:44:48.856Z,7.80
2022-12-19T19:47:17.607Z,8.57
2022-12-19T19:49:46.016Z,8.20
2022-12-19T19:52:16.041Z,9.00
2022-12-19T19:54:47.749Z,8.13
2022-12-19T19:57:19.976Z,7.87
2022-12-19T19:59:55.769Z,9.97
2022-12-19T20:02:24.580Z,8.53
2022-12-19T20:04:53.063Z,8.03
2022-12-19T20:07:24.192Z,8.10
2022-12-19T20:09:52.700Z,7.23
2022-12-19T20:12:21.322Z,8.00
2022-12-19T20:14:50.601Z,6.40
2022-12-19T20:17:19.282Z,7.03
2022-12-19T20:19:47.669Z,6.80
2022-12-19T20:22:17.226Z,7.20
2022-12-19T20:24:47.159Z,5.37
2022-12-19T20:27:15.386Z,6.33
2022-12-19T20:29:43.819Z,5.43
2022-12-19T20:32:15.019Z,4.87
2022-12-19T20:34:43.388Z,4.60
2022-12-19T20:37:11.758Z,4.33
2022-12-19T20:39:40.374Z,5.03
2022-12-19T20:42:10.215Z,4.20
2022-12-19T20:44:42.962Z,4.27
2022-12-19T20:47:12.429Z,3.37
2022-12-19T20:49:42.719Z,3.40
2022-12-19T20:52:23.554Z,3.53
2022-12-19T20:54:54.719Z,2.80
2022-12-19T20:57:33.684Z,2.97
2022-12-19T21:00:01.895Z,2.90
2022-12-19T21:02:46.248Z,3.20
2022-12-19T21:05:19.881Z,2.87
2022-12-19T21:07:48.364Z,2.50
2022-12-19T21:10:17.686Z,2.47
2022-12-19T21:12:48.209Z,2.00
2022-12-19T21:15:18.739Z,2.47
2022-12-19T21:17:47.125Z,2.33
2022-12-19T21:20:15.871Z,2.70
2022-12-19T21:22:44.224Z,2.00
2022-12-19T21:25:12.522Z,2.00
2022-12-19T21:27:41.876Z,2.63
2022-12-19T21:30:13.134Z,1.80
2022-12-19T21:32:41.487Z,1.80
2022-12-19T21:35:11.174Z,1.70
2022-12-19T21:37:58.439Z,1.90
2022-12-19T21:40:54.931Z,1.93
2022-12-19T21:43:23.237Z,1.60
2022-12-19T21:45:52.936Z,1.33
2022-12-19T21:48:21.166Z,2.47
2022-12-19T21:50:56.898Z,1.83
2022-12-19T21:53:25.317Z,1.30
2022-12-19T21:55:53.662Z,1.40
2022-12-19T21:58:21.872Z,1.40
2022-12-19T22:00:50.357Z,1.57
2022-12-19T22:03:20.287Z,1.30
2022-12-19T22:05:48.780Z,2.47
2022-12-19T22:08:17.167Z,1.30
2022-12-19T22:10:45.454Z,1.77
2022-12-19T22:13:13.648Z,1.27
2022-12-19T22:15:42.079Z,1.20
2022-12-19T22:18:11.380Z,1.30
2022-12-19T22:20:44.384Z,1.10
2022-12-19T22:23:13.835Z,1.20
2022-12-19T22:25:42.471Z,1.30
2022-12-19T22:28:10.933Z,1.00
2022-12-19T22:30:39.235Z,1.10
2022-12-19T22:33:08.353Z,0.90
2022-12-19T22:35:37.077Z,1.40
2022-12-19T22:38:07.020Z,1.00
2022-12-19T22:40:35.879Z,1.03
2022-12-19T22:43:04.152Z,0.70
2022-12-19T22:45:32.525Z,0.70
2022-12-19T22:48:00.771Z,0.80
2022-12-19T22:50:29.202Z,0.80
2022-12-19T22:52:57.584Z,1.03
2022-12-19T22:55:27.281Z,0.80
2022-12-19T22:57:55.641Z,0.70
2022-12-19T23:00:24.081Z,0.80
2022-12-19T23:02:52.357Z,0.80
2022-12-19T23:05:20.983Z,1.13
2022-12-19T23:07:49.397Z,0.90
2022-12-19T23:10:17.796Z,0.83
2022-12-19T23:12:47.378Z,1.27
2022-12-19T23:15:16.070Z,0.97
2022-12-19T23:17:44.350Z,1.03
2022-12-19T23:20:13.419Z,1.67
2022-12-19T23:22:41.698Z,1.10
2022-12-19T23:25:11.313Z,0.90
2022-12-19T23:27:41.547Z,0.70
2022-12-19T23:30:12.148Z,0.70
2022-12-19T23:32:44.213Z,1.10
2022-12-19T23:35:17.821Z,1.20
2022-12-19T23:37:46.042Z,1.50
2022-12-19T23:40:14.568Z,0.90
2022-12-19T23:42:42.974Z,0.73
2022-12-19T23:45:13.228Z,1.00
2022-12-19T23:47:41.466Z,0.80
2022-12-19T23:50:10.769Z,1.10
2022-12-19T23:52:38.977Z,0.87
2022-12-19T23:55:08.495Z,0.70
2022-12-19T23:57:36.927Z,1.43
